Home   Weather   India   Cuttack   Past weeks
Flag for India

Past Weather in Cuttack, Odisha, India — Yesterday and Last 2 Weeks

Currently: 68 °F. Fog. (Weather station: Bhubaneswar Airport, India). See more current weather

Past Weather in Cuttack — Graph

°F

Cuttack Temperature Yesterday

Maximum temperature yesterday: 81 °F (at 1:00 pm)
Minimum temperature yesterday: 59 °F (at 11:30 pm)
Average temperature yesterday: 69 °F

High & Low Weather Summary for the Past Weeks

 TemperatureHumidityPressure
High88 °F (Dec 1, 1:30 pm)100% (Nov 24, 11:30 pm)30.07 "Hg (Nov 24, 11:30 pm)
Low59 °F (Nov 26, 4:00 am)28% (Nov 26, 12:30 pm)29.80 "Hg (Nov 27, 2:30 pm)
Average73 °F76%29.93 "Hg
* Reported Nov 24 8:00 am — Dec 9 7:30 am, Cuttack. Weather by CustomWeather, © 2022

Note: Actual official high and low records may vary slightly from our data, if they occured in-between our weather recording intervals... More about our weather records

Cuttack Weather History for the Previous 24 Hours

Scroll right to see more
 ConditionsComfort  
Time TempWeatherWind HumidityBarometerVisibility
7:30 am
Fri, Dec 9
64 °FFog.6 mph78%29.98 "Hg1 mi
7:00 am61 °FFog.7 mph88%29.95 "Hg1 mi
6:30 am61 °FFog.5 mph88%29.95 "Hg1 mi
5:00 am61 °FFog.5 mph88%29.92 "Hg1 mi
4:30 am61 °FFog.5 mph88%29.92 "Hg1 mi
4:00 am61 °FFog.3 mph94%29.92 "Hg1 mi
3:30 am61 °FFog.5 mph94%29.92 "Hg1 mi
2:30 am61 °FFog.5 mph88%29.92 "Hg1 mi
2:00 am61 °FFog.3 mph94%29.92 "Hg1 mi
1:30 am59 °FFog.5 mph100%29.95 "Hg1 mi
1:00 am59 °FPassing clouds.No wind100%29.95 "Hg1 mi
12:30 am59 °FFog.2 mph100%29.95 "Hg1 mi
12:00 am59 °FFog.2 mph100%29.95 "Hg1 mi
11:30 pm
Thu, Dec 8
59 °FFog.No wind100%29.95 "Hg1 mi
11:00 pm61 °FFog.2 mph94%29.95 "Hg1 mi
10:30 pm61 °FFog.3 mph94%29.98 "Hg1 mi
9:30 pm63 °FFog.5 mph88%29.98 "Hg1 mi
9:00 pm63 °FFog.2 mph88%29.95 "Hg1 mi
8:30 pm64 °FFog.2 mph83%29.95 "Hg1 mi
7:30 pm64 °FPassing clouds.2 mph83%29.92 "Hg1 mi
7:00 pm66 °FPassing clouds.2 mph78%29.92 "Hg1 mi
6:30 pm66 °FPassing clouds.5 mph78%29.92 "Hg1 mi
6:00 pm68 °FPassing clouds.No wind73%29.92 "Hg1 mi
5:30 pm72 °FScattered clouds.2 mph53%29.89 "Hg1 mi
5:00 pm75 °FHaze.5 mph44%29.89 "Hg2 mi
4:30 pm77 °FHaze.2 mph42%29.89 "Hg2 mi
4:00 pm79 °FHaze.5 mph37%29.89 "Hg2 mi
3:33 pm81 °FHaze.8 mph34%29.89 "Hg2 mi
3:00 pm81 °FHaze.5 mph39%29.89 "Hg2 mi
2:30 pm81 °FHaze.7 mph37%29.89 "Hg2 mi
2:00 pm81 °FHaze.8 mph37%29.92 "Hg2 mi
1:30 pm81 °FHaze.7 mph37%29.92 "Hg2 mi
1:00 pm81 °FHaze.8 mph37%29.95 "Hg2 mi
12:30 pm79 °FHaze.6 mph39%29.95 "Hg2 mi
11:30 am79 °FHaze.7 mph42%29.98 "Hg2 mi
11:00 am77 °FHaze.10 mph47%29.98 "Hg1 mi
10:30 am75 °FHaze.9 mph50%30.01 "Hg1 mi
10:00 am75 °FHaze.8 mph50%30.01 "Hg1 mi
9:30 am73 °FScattered clouds.9 mph57%30.01 "Hg1 mi
9:00 am72 °FScattered clouds.8 mph65%30.01 "Hg1 mi
Weather by CustomWeather, © 2022

See weather overview